sensor_id;sensor_type;location;lat;lon;timestamp;temperature;humidity
15083;DHT22;7640;53.116;6.878;2023-11-18T00:00:34;3.10;99.90
15083;DHT22;7640;53.116;6.878;2023-11-18T00:03:02;3.10;99.90
15083;DHT22;7640;53.116;6.878;2023-11-18T00:05:32;3.10;99.90
15083;DHT22;7640;53.116;6.878;2023-11-18T00:08:01;3.20;99.90
15083;DHT22;7640;53.116;6.878;2023-11-18T00:10:30;3.20;99.90
15083;DHT22;7640;53.116;6.878;2023-11-18T00:12:59;3.20;99.90
15083;DHT22;7640;53.116;6.878;2023-11-18T00:15:29;3.20;99.90
15083;DHT22;7640;53.116;6.878;2023-11-18T00:17:59;3.20;99.90
15083;DHT22;7640;53.116;6.878;2023-11-18T00:20:27;3.20;99.90
15083;DHT22;7640;53.116;6.878;2023-11-18T00:22:58;3.20;99.90
15083;DHT22;7640;53.116;6.878;2023-11-18T00:25:28;3.20;99.90
15083;DHT22;7640;53.116;6.878;2023-11-18T00:27:57;3.20;99.90
15083;DHT22;7640;53.116;6.878;2023-11-18T00:30:27;3.20;99.90
15083;DHT22;7640;53.116;6.878;2023-11-18T00:32:55;3.20;99.90
15083;DHT22;7640;53.116;6.878;2023-11-18T00:35:26;3.20;99.90
15083;DHT22;7640;53.116;6.878;2023-11-18T00:37:58;3.20;99.90
15083;DHT22;7640;53.116;6.878;2023-11-18T00:40:27;3.20;99.90
15083;DHT22;7640;53.116;6.878;2023-11-18T00:42:57;3.20;99.90
15083;DHT22;7640;53.116;6.878;2023-11-18T00:45:26;3.20;99.90
15083;DHT22;7640;53.116;6.878;2023-11-18T00:47:56;3.20;99.90
15083;DHT22;7640;53.116;6.878;2023-11-18T00:50:27;3.20;99.90
15083;DHT22;7640;53.116;6.878;2023-11-18T00:52:55;3.20;99.90
15083;DHT22;7640;53.116;6.878;2023-11-18T00:55:24;3.20;99.90
15083;DHT22;7640;53.116;6.878;2023-11-18T00:57:53;3.20;99.90
15083;DHT22;7640;53.116;6.878;2023-11-18T01:00:21;3.20;99.90
15083;DHT22;7640;53.116;6.878;2023-11-18T01:02:50;3.20;99.90
15083;DHT22;7640;53.116;6.878;2023-11-18T01:05:19;3.20;99.90
15083;DHT22;7640;53.116;6.878;2023-11-18T01:07:49;3.20;99.90
15083;DHT22;7640;53.116;6.878;2023-11-18T01:10:19;3.20;99.90
15083;DHT22;7640;53.116;6.878;2023-11-18T01:12:48;3.20;99.90
15083;DHT22;7640;53.116;6.878;2023-11-18T01:15:16;3.20;99.90
15083;DHT22;7640;53.116;6.878;2023-11-18T01:17:44;3.20;99.90
15083;DHT22;7640;53.116;6.878;2023-11-18T01:20:13;3.20;99.90
15083;DHT22;7640;53.116;6.878;2023-11-18T01:22:49;3.20;99.90
15083;DHT22;7640;53.116;6.878;2023-11-18T01:25:19;3.20;99.90
15083;DHT22;7640;53.116;6.878;2023-11-18T01:27:47;3.20;99.90
15083;DHT22;7640;53.116;6.878;2023-11-18T01:30:15;3.20;99.90
15083;DHT22;7640;53.116;6.878;2023-11-18T01:32:45;3.20;99.90
15083;DHT22;7640;53.116;6.878;2023-11-18T01:35:13;3.20;99.90
15083;DHT22;7640;53.116;6.878;2023-11-18T01:37:42;3.20;99.90
15083;DHT22;7640;53.116;6.878;2023-11-18T01:40:12;3.20;99.90
15083;DHT22;7640;53.116;6.878;2023-11-18T01:42:42;3.20;99.90
15083;DHT22;7640;53.116;6.878;2023-11-18T01:45:13;3.20;99.90
15083;DHT22;7640;53.116;6.878;2023-11-18T01:47:44;3.20;99.90
15083;DHT22;7640;53.116;6.878;2023-11-18T01:50:16;3.30;99.90
15083;DHT22;7640;53.116;6.878;2023-11-18T01:52:45;3.20;99.90
15083;DHT22;7640;53.116;6.878;2023-11-18T01:55:16;3.30;99.90
15083;DHT22;7640;53.116;6.878;2023-11-18T01:57:45;3.30;99.90
15083;DHT22;7640;53.116;6.878;2023-11-18T02:00:16;3.30;99.90
15083;DHT22;7640;53.116;6.878;2023-11-18T02:02:45;3.20;99.90
15083;DHT22;7640;53.116;6.878;2023-11-18T02:05:15;3.20;99.90
15083;DHT22;7640;53.116;6.878;2023-11-18T02:07:45;3.20;99.90
15083;DHT22;7640;53.116;6.878;2023-11-18T02:10:15;3.20;99.90
15083;DHT22;7640;53.116;6.878;2023-11-18T02:12:50;3.20;99.90
15083;DHT22;7640;53.116;6.878;2023-11-18T02:15:25;3.20;99.90
15083;DHT22;7640;53.116;6.878;2023-11-18T02:17:57;3.20;99.90
15083;DHT22;7640;53.116;6.878;2023-11-18T02:20:27;3.10;99.90
15083;DHT22;7640;53.116;6.878;2023-11-18T02:22:57;3.10;99.90
15083;DHT22;7640;53.116;6.878;2023-11-18T02:25:27;3.10;99.90
15083;DHT22;7640;53.116;6.878;2023-11-18T02:28:00;3.10;99.90
15083;DHT22;7640;53.116;6.878;2023-11-18T02:30:29;3.10;99.90
15083;DHT22;7640;53.116;6.878;2023-11-18T02:33:03;3.10;99.90
15083;DHT22;7640;53.116;6.878;2023-11-18T02:35:44;3.10;99.90
15083;DHT22;7640;53.116;6.878;2023-11-18T02:38:17;3.10;99.90
15083;DHT22;7640;53.116;6.878;2023-11-18T02:40:47;3.10;99.90
15083;DHT22;7640;53.116;6.878;2023-11-18T02:43:22;3.10;99.90
15083;DHT22;7640;53.116;6.878;2023-11-18T02:45:53;3.10;99.90
15083;DHT22;7640;53.116;6.878;2023-11-18T02:48:23;3.10;99.90
15083;DHT22;7640;53.116;6.878;2023-11-18T02:50:53;3.10;99.90
15083;DHT22;7640;53.116;6.878;2023-11-18T02:53:21;3.10;99.90
15083;DHT22;7640;53.116;6.878;2023-11-18T02:55:51;3.10;99.90
15083;DHT22;7640;53.116;6.878;2023-11-18T02:58:22;3.20;99.90
15083;DHT22;7640;53.116;6.878;2023-11-18T03:00:50;3.20;99.90
15083;DHT22;7640;53.116;6.878;2023-11-18T03:03:19;3.20;99.90
15083;DHT22;7640;53.116;6.878;2023-11-18T03:05:48;3.20;99.90
15083;DHT22;7640;53.116;6.878;2023-11-18T03:08:16;3.10;99.90
15083;DHT22;7640;53.116;6.878;2023-11-18T03:10:45;3.20;99.90
15083;DHT22;7640;53.116;6.878;2023-11-18T03:13:13;3.20;99.90
15083;DHT22;7640;53.116;6.878;2023-11-18T03:15:43;3.20;99.90
15083;DHT22;7640;53.116;6.878;2023-11-18T03:18:12;3.20;99.90
15083;DHT22;7640;53.116;6.878;2023-11-18T03:20:42;3.20;99.90
15083;DHT22;7640;53.116;6.878;2023-11-18T03:23:10;3.20;99.90
15083;DHT22;7640;53.116;6.878;2023-11-18T03:25:38;3.20;99.90
15083;DHT22;7640;53.116;6.878;2023-11-18T03:28:07;3.20;99.90
15083;DHT22;7640;53.116;6.878;2023-11-18T03:30:35;3.20;99.90
15083;DHT22;7640;53.116;6.878;2023-11-18T03:33:06;3.30;99.90
15083;DHT22;7640;53.116;6.878;2023-11-18T03:35:38;3.30;99.90
15083;DHT22;7640;53.116;6.878;2023-11-18T03:38:06;3.30;99.90
15083;DHT22;7640;53.116;6.878;2023-11-18T03:40:34;3.30;99.90
15083;DHT22;7640;53.116;6.878;2023-11-18T03:43:03;3.40;99.90
15083;DHT22;7640;53.116;6.878;2023-11-18T03:45:31;3.40;99.90
15083;DHT22;7640;53.116;6.878;2023-11-18T03:48:00;3.40;99.90
15083;DHT22;7640;53.116;6.878;2023-11-18T03:50:31;3.40;99.90
15083;DHT22;7640;53.116;6.878;2023-11-18T03:52:59;3.50;99.90
15083;DHT22;7640;53.116;6.878;2023-11-18T03:55:30;3.50;99.90
15083;DHT22;7640;53.116;6.878;2023-11-18T03:57:58;3.50;99.90
15083;DHT22;7640;53.116;6.878;2023-11-18T04:00:27;3.50;99.90
15083;DHT22;7640;53.116;6.878;2023-11-18T04:02:57;3.50;99.90
15083;DHT22;7640;53.116;6.878;2023-11-18T04:05:25;3.50;99.90
15083;DHT22;7640;53.116;6.878;2023-11-18T04:07:55;3.60;99.90
15083;DHT22;7640;53.116;6.878;2023-11-18T04:10:24;3.50;99.90
15083;DHT22;7640;53.116;6.878;2023-11-18T04:12:53;3.50;99.90
15083;DHT22;7640;53.116;6.878;2023-11-18T04:15:23;3.60;99.90
15083;DHT22;7640;53.116;6.878;2023-11-18T04:17:54;3.60;99.90
15083;DHT22;7640;53.116;6.878;2023-11-18T04:20:25;3.60;99.90
15083;DHT22;7640;53.116;6.878;2023-11-18T04:22:55;3.50;99.90
15083;DHT22;7640;53.116;6.878;2023-11-18T04:25:24;3.60;99.90
15083;DHT22;7640;53.116;6.878;2023-11-18T04:27:53;3.60;99.90
15083;DHT22;7640;53.116;6.878;2023-11-18T04:30:21;3.60;99.90
15083;DHT22;7640;53.116;6.878;2023-11-18T04:32:50;3.60;99.90
15083;DHT22;7640;53.116;6.878;2023-11-18T04:35:19;3.70;99.90
15083;DHT22;7640;53.116;6.878;2023-11-18T04:37:49;3.70;99.90
15083;DHT22;7640;53.116;6.878;2023-11-18T04:40:21;3.70;99.90
15083;DHT22;7640;53.116;6.878;2023-11-18T04:42:50;3.80;99.90
15083;DHT22;7640;53.116;6.878;2023-11-18T04:45:18;3.80;99.90
15083;DHT22;7640;53.116;6.878;2023-11-18T04:47:47;3.80;99.90
15083;DHT22;7640;53.116;6.878;2023-11-18T04:50:17;3.80;99.90
15083;DHT22;7640;53.116;6.878;2023-11-18T04:52:45;3.90;99.90
15083;DHT22;7640;53.116;6.878;2023-11-18T04:55:14;3.90;99.90
15083;DHT22;7640;53.116;6.878;2023-11-18T04:57:43;3.90;99.90
15083;DHT22;7640;53.116;6.878;2023-11-18T05:00:13;3.90;99.90
15083;DHT22;7640;53.116;6.878;2023-11-18T05:02:44;3.90;99.90
15083;DHT22;7640;53.116;6.878;2023-11-18T05:05:15;4.00;99.90
15083;DHT22;7640;53.116;6.878;2023-11-18T05:07:44;4.00;99.90
15083;DHT22;7640;53.116;6.878;2023-11-18T05:10:13;4.10;99.90
15083;DHT22;7640;53.116;6.878;2023-11-18T05:12:43;4.10;99.90
15083;DHT22;7640;53.116;6.878;2023-11-18T05:15:11;4.10;99.90
15083;DHT22;7640;53.116;6.878;2023-11-18T05:17:40;4.20;99.90
15083;DHT22;7640;53.116;6.878;2023-11-18T05:20:09;4.20;99.90
15083;DHT22;7640;53.116;6.878;2023-11-18T05:22:38;4.20;99.90
15083;DHT22;7640;53.116;6.878;2023-11-18T05:25:07;4.20;99.90
15083;DHT22;7640;53.116;6.878;2023-11-18T05:27:37;4.20;99.90
15083;DHT22;7640;53.116;6.878;2023-11-18T05:30:09;4.30;99.90
15083;DHT22;7640;53.116;6.878;2023-11-18T05:32:38;4.20;99.90
15083;DHT22;7640;53.116;6.878;2023-11-18T05:35:07;4.20;99.90
15083;DHT22;7640;53.116;6.878;2023-11-18T05:37:38;4.20;99.90
15083;DHT22;7640;53.116;6.878;2023-11-18T05:40:08;4.20;99.90
15083;DHT22;7640;53.116;6.878;2023-11-18T05:42:42;4.20;99.90
15083;DHT22;7640;53.116;6.878;2023-11-18T05:45:14;4.20;99.90
15083;DHT22;7640;53.116;6.878;2023-11-18T05:47:54;4.20;99.90
15083;DHT22;7640;53.116;6.878;2023-11-18T05:50:24;4.20;99.90
15083;DHT22;7640;53.116;6.878;2023-11-18T05:52:54;4.30;99.90
15083;DHT22;7640;53.116;6.878;2023-11-18T05:55:24;4.30;99.90
15083;DHT22;7640;53.116;6.878;2023-11-18T05:57:53;4.30;99.90
15083;DHT22;7640;53.116;6.878;2023-11-18T06:00:23;4.30;99.90
15083;DHT22;7640;53.116;6.878;2023-11-18T06:03:01;4.40;99.90
15083;DHT22;7640;53.116;6.878;2023-11-18T06:05:30;4.40;99.90
15083;DHT22;7640;53.116;6.878;2023-11-18T06:08:02;4.40;99.90
15083;DHT22;7640;53.116;6.878;2023-11-18T06:10:31;4.50;99.90
15083;DHT22;7640;53.116;6.878;2023-11-18T06:13:01;4.40;99.90
15083;DHT22;7640;53.116;6.878;2023-11-18T06:15:33;4.50;99.90
15083;DHT22;7640;53.116;6.878;2023-11-18T06:18:02;4.40;99.90
15083;DHT22;7640;53.116;6.878;2023-11-18T06:20:34;4.50;99.90
15083;DHT22;7640;53.116;6.878;2023-11-18T06:23:05;4.50;99.90
15083;DHT22;7640;53.116;6.878;2023-11-18T06:25:35;4.40;99.90
15083;DHT22;7640;53.116;6.878;2023-11-18T06:28:04;4.50;99.90
15083;DHT22;7640;53.116;6.878;2023-11-18T06:30:36;4.50;99.90
15083;DHT22;7640;53.116;6.878;2023-11-18T06:33:05;4.50;99.90
15083;DHT22;7640;53.116;6.878;2023-11-18T06:35:33;4.50;99.90
15083;DHT22;7640;53.116;6.878;2023-11-18T06:38:02;4.50;99.90
15083;DHT22;7640;53.116;6.878;2023-11-18T06:40:31;4.50;99.90
15083;DHT22;7640;53.116;6.878;2023-11-18T06:43:00;4.60;99.90
15083;DHT22;7640;53.116;6.878;2023-11-18T06:45:29;4.60;99.90
15083;DHT22;7640;53.116;6.878;2023-11-18T06:48:00;4.60;99.90
15083;DHT22;7640;53.116;6.878;2023-11-18T06:50:29;4.60;99.90
15083;DHT22;7640;53.116;6.878;2023-11-18T06:52:58;4.70;99.90
15083;DHT22;7640;53.116;6.878;2023-11-18T06:55:27;4.70;99.90
15083;DHT22;7640;53.116;6.878;2023-11-18T06:57:57;4.70;99.90
15083;DHT22;7640;53.116;6.878;2023-11-18T07:00:26;4.70;99.90
15083;DHT22;7640;53.116;6.878;2023-11-18T07:02:55;4.80;99.90
15083;DHT22;7640;53.116;6.878;2023-11-18T07:05:26;4.80;99.90
15083;DHT22;7640;53.116;6.878;2023-11-18T07:07:55;4.80;99.90
15083;DHT22;7640;53.116;6.878;2023-11-18T07:10:24;4.80;99.90
15083;DHT22;7640;53.116;6.878;2023-11-18T07:12:54;4.80;99.90
15083;DHT22;7640;53.116;6.878;2023-11-18T07:15:23;4.80;99.90
15083;DHT22;7640;53.116;6.878;2023-11-18T07:17:52;4.90;99.90
15083;DHT22;7640;53.116;6.878;2023-11-18T07:20:23;4.90;99.90
15083;DHT22;7640;53.116;6.878;2023-11-18T07:22:53;4.90;99.90
15083;DHT22;7640;53.116;6.878;2023-11-18T07:25:22;4.90;99.90
15083;DHT22;7640;53.116;6.878;2023-11-18T07:27:51;5.00;99.90
15083;DHT22;7640;53.116;6.878;2023-11-18T07:30:19;5.00;99.90
15083;DHT22;7640;53.116;6.878;2023-11-18T07:32:48;5.00;99.90
15083;DHT22;7640;53.116;6.878;2023-11-18T07:35:18;5.00;99.90
15083;DHT22;7640;53.116;6.878;2023-11-18T07:37:46;5.00;99.90
15083;DHT22;7640;53.116;6.878;2023-11-18T07:40:16;5.00;99.90
15083;DHT22;7640;53.116;6.878;2023-11-18T07:42:49;5.00;99.90
15083;DHT22;7640;53.116;6.878;2023-11-18T07:45:18;5.10;99.90
15083;DHT22;7640;53.116;6.878;2023-11-18T07:47:46;5.10;99.90
15083;DHT22;7640;53.116;6.878;2023-11-18T07:50:16;5.10;99.90
15083;DHT22;7640;53.116;6.878;2023-11-18T07:52:47;5.10;99.90
15083;DHT22;7640;53.116;6.878;2023-11-18T07:55:17;5.10;99.90
15083;DHT22;7640;53.116;6.878;2023-11-18T07:57:45;5.20;99.90
15083;DHT22;7640;53.116;6.878;2023-11-18T08:00:15;5.20;99.90
15083;DHT22;7640;53.116;6.878;2023-11-18T08:02:44;5.20;99.90
15083;DHT22;7640;53.116;6.878;2023-11-18T08:05:13;5.20;99.90
15083;DHT22;7640;53.116;6.878;2023-11-18T08:07:42;5.20;99.90
15083;DHT22;7640;53.116;6.878;2023-11-18T08:10:12;5.30;99.90
15083;DHT22;7640;53.116;6.878;2023-11-18T08:12:47;5.30;99.90
15083;DHT22;7640;53.116;6.878;2023-11-18T08:15:16;5.30;99.90
15083;DHT22;7640;53.116;6.878;2023-11-18T08:17:45;5.30;99.90
15083;DHT22;7640;53.116;6.878;2023-11-18T08:20:14;5.30;99.90
15083;DHT22;7640;53.116;6.878;2023-11-18T08:22:43;5.40;99.90
15083;DHT22;7640;53.116;6.878;2023-11-18T08:25:12;5.40;99.90
15083;DHT22;7640;53.116;6.878;2023-11-18T08:27:42;5.40;99.90
15083;DHT22;7640;53.116;6.878;2023-11-18T08:30:14;5.40;99.90
15083;DHT22;7640;53.116;6.878;2023-11-18T08:32:45;5.40;99.90
15083;DHT22;7640;53.116;6.878;2023-11-18T08:35:15;5.40;99.90
15083;DHT22;7640;53.116;6.878;2023-11-18T08:37:44;5.40;99.90
15083;DHT22;7640;53.116;6.878;2023-11-18T08:40:14;5.40;99.90
15083;DHT22;7640;53.116;6.878;2023-11-18T08:42:44;5.40;99.90
15083;DHT22;7640;53.116;6.878;2023-11-18T08:45:20;5.40;99.90
15083;DHT22;7640;53.116;6.878;2023-11-18T08:47:54;5.40;99.90
15083;DHT22;7640;53.116;6.878;2023-11-18T08:50:27;5.40;99.90
15083;DHT22;7640;53.116;6.878;2023-11-18T08:52:58;5.40;99.90
15083;DHT22;7640;53.116;6.878;2023-11-18T08:55:27;5.40;99.90
15083;DHT22;7640;53.116;6.878;2023-11-18T08:58:10;5.40;99.90
15083;DHT22;7640;53.116;6.878;2023-11-18T09:00:51;5.40;99.90
15083;DHT22;7640;53.116;6.878;2023-11-18T09:03:24;5.40;99.90
15083;DHT22;7640;53.116;6.878;2023-11-18T09:05:57;5.50;99.90
15083;DHT22;7640;53.116;6.878;2023-11-18T09:08:33;5.40;99.90
15083;DHT22;7640;53.116;6.878;2023-11-18T09:11:04;5.40;99.90
15083;DHT22;7640;53.116;6.878;2023-11-18T09:13:34;5.40;99.90
15083;DHT22;7640;53.116;6.878;2023-11-18T09:16:06;5.50;99.90
15083;DHT22;7640;53.116;6.878;2023-11-18T09:18:37;5.50;99.90
15083;DHT22;7640;53.116;6.878;2023-11-18T09:21:09;5.50;99.90
15083;DHT22;7640;53.116;6.878;2023-11-18T09:23:43;5.50;99.90
15083;DHT22;7640;53.116;6.878;2023-11-18T09:26:12;5.50;99.90
15083;DHT22;7640;53.116;6.878;2023-11-18T09:28:42;5.50;99.90
15083;DHT22;7640;53.116;6.878;2023-11-18T09:31:12;5.50;99.90
15083;DHT22;7640;53.116;6.878;2023-11-18T09:33:41;5.50;99.90
15083;DHT22;7640;53.116;6.878;2023-11-18T09:36:19;5.60;99.90
15083;DHT22;7640;53.116;6.878;2023-11-18T09:38:50;5.60;99.90
15083;DHT22;7640;53.116;6.878;2023-11-18T09:41:23;5.60;99.90
15083;DHT22;7640;53.116;6.878;2023-11-18T09:43:54;5.60;99.90
15083;DHT22;7640;53.116;6.878;2023-11-18T09:46:27;5.60;99.90
15083;DHT22;7640;53.116;6.878;2023-11-18T09:49:06;5.70;99.90
15083;DHT22;7640;53.116;6.878;2023-11-18T09:51:44;5.70;99.90
15083;DHT22;7640;53.116;6.878;2023-11-18T09:54:20;5.70;99.90
15083;DHT22;7640;53.116;6.878;2023-11-18T09:57:03;5.80;99.90
15083;DHT22;7640;53.116;6.878;2023-11-18T09:59:42;5.80;99.90
15083;DHT22;7640;53.116;6.878;2023-11-18T10:02:24;5.80;99.90
15083;DHT22;7640;53.116;6.878;2023-11-18T10:04:54;5.80;99.90
15083;DHT22;7640;53.116;6.878;2023-11-18T10:07:25;5.80;99.90
15083;DHT22;7640;53.116;6.878;2023-11-18T10:09:55;5.90;99.90
15083;DHT22;7640;53.116;6.878;2023-11-18T10:12:25;5.90;99.90
15083;DHT22;7640;53.116;6.878;2023-11-18T10:14:54;5.90;99.90
15083;DHT22;7640;53.116;6.878;2023-11-18T10:17:24;5.90;99.90
15083;DHT22;7640;53.116;6.878;2023-11-18T10:19:54;5.90;99.90
15083;DHT22;7640;53.116;6.878;2023-11-18T10:22:25;5.90;99.90
15083;DHT22;7640;53.116;6.878;2023-11-18T10:24:56;5.90;99.90
15083;DHT22;7640;53.116;6.878;2023-11-18T10:27:28;5.90;99.90
15083;DHT22;7640;53.116;6.878;2023-11-18T10:30:02;6.00;99.90
15083;DHT22;7640;53.116;6.878;2023-11-18T10:32:32;6.00;99.90
15083;DHT22;7640;53.116;6.878;2023-11-18T10:35:04;6.00;99.90
15083;DHT22;7640;53.116;6.878;2023-11-18T10:37:32;6.00;99.90
15083;DHT22;7640;53.116;6.878;2023-11-18T10:40:07;6.00;99.90
15083;DHT22;7640;53.116;6.878;2023-11-18T10:42:41;6.00;99.90
15083;DHT22;7640;53.116;6.878;2023-11-18T10:45:23;6.00;99.90
15083;DHT22;7640;53.116;6.878;2023-11-18T10:47:56;5.90;99.90
15083;DHT22;7640;53.116;6.878;2023-11-18T10:50:25;5.90;99.90
15083;DHT22;7640;53.116;6.878;2023-11-18T10:53:00;5.90;99.90
15083;DHT22;7640;53.116;6.878;2023-11-18T10:55:36;5.90;99.90
15083;DHT22;7640;53.116;6.878;2023-11-18T10:58:05;5.90;99.90
15083;DHT22;7640;53.116;6.878;2023-11-18T11:00:48;5.90;99.90
15083;DHT22;7640;53.116;6.878;2023-11-18T11:03:20;5.90;99.90
15083;DHT22;7640;53.116;6.878;2023-11-18T11:05:51;5.90;99.90
15083;DHT22;7640;53.116;6.878;2023-11-18T11:08:26;5.90;99.90
15083;DHT22;7640;53.116;6.878;2023-11-18T11:11:07;5.90;99.90
15083;DHT22;7640;53.116;6.878;2023-11-18T11:13:36;5.90;99.90
15083;DHT22;7640;53.116;6.878;2023-11-18T11:16:07;5.90;99.90
15083;DHT22;7640;53.116;6.878;2023-11-18T11:18:44;5.90;99.90
15083;DHT22;7640;53.116;6.878;2023-11-18T11:21:24;5.90;99.90
15083;DHT22;7640;53.116;6.878;2023-11-18T11:23:57;5.90;99.90
15083;DHT22;7640;53.116;6.878;2023-11-18T11:26:37;6.00;99.90
15083;DHT22;7640;53.116;6.878;2023-11-18T11:29:25;6.00;99.90
15083;DHT22;7640;53.116;6.878;2023-11-18T11:32:03;6.00;99.90
15083;DHT22;7640;53.116;6.878;2023-11-18T11:34:48;6.00;99.90
15083;DHT22;7640;53.116;6.878;2023-11-18T11:37:25;6.10;99.90
15083;DHT22;7640;53.116;6.878;2023-11-18T11:39:55;6.10;99.90
15083;DHT22;7640;53.116;6.878;2023-11-18T11:42:26;6.10;99.90
15083;DHT22;7640;53.116;6.878;2023-11-18T11:44:56;6.10;99.90
15083;DHT22;7640;53.116;6.878;2023-11-18T11:47:26;6.10;99.90
15083;DHT22;7640;53.116;6.878;2023-11-18T11:50:02;6.10;99.90
15083;DHT22;7640;53.116;6.878;2023-11-18T11:52:44;6.10;99.90
15083;DHT22;7640;53.116;6.878;2023-11-18T11:55:22;6.10;99.90
15083;DHT22;7640;53.116;6.878;2023-11-18T11:57:55;6.10;99.90
15083;DHT22;7640;53.116;6.878;2023-11-18T12:00:27;6.10;99.90
15083;DHT22;7640;53.116;6.878;2023-11-18T12:03:02;6.10;99.90
15083;DHT22;7640;53.116;6.878;2023-11-18T12:05:33;6.10;99.90
15083;DHT22;7640;53.116;6.878;2023-11-18T12:08:02;6.10;99.90
15083;DHT22;7640;53.116;6.878;2023-11-18T12:10:35;6.20;99.90
15083;DHT22;7640;53.116;6.878;2023-11-18T12:13:08;6.20;99.90
15083;DHT22;7640;53.116;6.878;2023-11-18T12:15:48;6.20;99.90
15083;DHT22;7640;53.116;6.878;2023-11-18T12:18:21;6.20;99.90
15083;DHT22;7640;53.116;6.878;2023-11-18T12:20:52;6.20;99.90
15083;DHT22;7640;53.116;6.878;2023-11-18T12:23:29;6.30;99.90
15083;DHT22;7640;53.116;6.878;2023-11-18T12:25:58;6.30;99.90
15083;DHT22;7640;53.116;6.878;2023-11-18T12:28:30;6.30;99.90
15083;DHT22;7640;53.116;6.878;2023-11-18T12:31:03;6.30;99.90
15083;DHT22;7640;53.116;6.878;2023-11-18T12:34:02;6.30;99.90
15083;DHT22;7640;53.116;6.878;2023-11-18T12:37:03;6.30;99.90
15083;DHT22;7640;53.116;6.878;2023-11-18T12:43:03;6.30;99.90
15083;DHT22;7640;53.116;6.878;2023-11-18T12:45:52;6.40;99.90
15083;DHT22;7640;53.116;6.878;2023-11-18T12:48:57;6.40;99.90
15083;DHT22;7640;53.116;6.878;2023-11-18T12:51:27;6.40;99.90
15083;DHT22;7640;53.116;6.878;2023-11-18T12:53:59;6.50;99.90
15083;DHT22;7640;53.116;6.878;2023-11-18T12:56:29;6.50;99.90
15083;DHT22;7640;53.116;6.878;2023-11-18T12:58:59;6.50;99.90
15083;DHT22;7640;53.116;6.878;2023-11-18T13:01:33;6.50;99.90
15083;DHT22;7640;53.116;6.878;2023-11-18T13:04:03;6.60;99.90
15083;DHT22;7640;53.116;6.878;2023-11-18T13:06:32;6.60;99.90
15083;DHT22;7640;53.116;6.878;2023-11-18T13:09:02;6.60;99.90
15083;DHT22;7640;53.116;6.878;2023-11-18T13:11:37;6.60;99.90
15083;DHT22;7640;53.116;6.878;2023-11-18T13:14:09;6.60;99.90
15083;DHT22;7640;53.116;6.878;2023-11-18T13:16:39;6.60;99.90
15083;DHT22;7640;53.116;6.878;2023-11-18T13:19:08;6.60;99.90
15083;DHT22;7640;53.116;6.878;2023-11-18T13:21:37;6.50;99.90
15083;DHT22;7640;53.116;6.878;2023-11-18T13:24:08;6.50;99.90
15083;DHT22;7640;53.116;6.878;2023-11-18T13:26:37;6.50;99.90
15083;DHT22;7640;53.116;6.878;2023-11-18T13:29:07;6.50;99.90
15083;DHT22;7640;53.116;6.878;2023-11-18T13:31:36;6.50;99.90
15083;DHT22;7640;53.116;6.878;2023-11-18T13:34:05;6.50;99.90
15083;DHT22;7640;53.116;6.878;2023-11-18T13:36:35;6.50;99.90
15083;DHT22;7640;53.116;6.878;2023-11-18T13:39:15;6.50;99.90
15083;DHT22;7640;53.116;6.878;2023-11-18T13:41:48;6.50;99.90
15083;DHT22;7640;53.116;6.878;2023-11-18T13:44:33;6.50;99.90
15083;DHT22;7640;53.116;6.878;2023-11-18T13:47:05;6.50;99.90
15083;DHT22;7640;53.116;6.878;2023-11-18T13:49:34;6.50;99.90
15083;DHT22;7640;53.116;6.878;2023-11-18T13:52:03;6.60;99.90
15083;DHT22;7640;53.116;6.878;2023-11-18T13:54:35;6.60;99.90
15083;DHT22;7640;53.116;6.878;2023-11-18T13:57:06;6.60;99.90
15083;DHT22;7640;53.116;6.878;2023-11-18T13:59:35;6.60;99.90
15083;DHT22;7640;53.116;6.878;2023-11-18T14:02:04;6.60;99.90
15083;DHT22;7640;53.116;6.878;2023-11-18T14:04:36;6.60;99.90
15083;DHT22;7640;53.116;6.878;2023-11-18T14:07:04;6.60;99.90
15083;DHT22;7640;53.116;6.878;2023-11-18T14:09:37;6.60;99.90
15083;DHT22;7640;53.116;6.878;2023-11-18T14:12:08;6.60;99.90
15083;DHT22;7640;53.116;6.878;2023-11-18T14:14:37;6.60;99.90
15083;DHT22;7640;53.116;6.878;2023-11-18T14:17:05;6.60;99.90
15083;DHT22;7640;53.116;6.878;2023-11-18T14:19:37;6.60;99.90
15083;DHT22;7640;53.116;6.878;2023-11-18T14:22:05;6.70;99.90
15083;DHT22;7640;53.116;6.878;2023-11-18T14:24:34;6.70;99.90
15083;DHT22;7640;53.116;6.878;2023-11-18T14:27:04;6.70;99.90
15083;DHT22;7640;53.116;6.878;2023-11-18T14:29:34;6.70;99.90
15083;DHT22;7640;53.116;6.878;2023-11-18T14:32:05;6.70;99.90
15083;DHT22;7640;53.116;6.878;2023-11-18T14:34:34;6.70;99.90
15083;DHT22;7640;53.116;6.878;2023-11-18T14:37:03;6.70;99.90
15083;DHT22;7640;53.116;6.878;2023-11-18T14:39:33;6.70;99.90
15083;DHT22;7640;53.116;6.878;2023-11-18T14:42:05;6.70;99.90
15083;DHT22;7640;53.116;6.878;2023-11-18T14:44:36;6.70;99.90
15083;DHT22;7640;53.116;6.878;2023-11-18T14:47:04;6.70;99.90
15083;DHT22;7640;53.116;6.878;2023-11-18T14:49:34;6.70;99.90
15083;DHT22;7640;53.116;6.878;2023-11-18T14:52:03;6.70;99.90
15083;DHT22;7640;53.116;6.878;2023-11-18T14:54:34;6.70;99.90
15083;DHT22;7640;53.116;6.878;2023-11-18T14:57:05;6.70;99.90
15083;DHT22;7640;53.116;6.878;2023-11-18T14:59:33;6.70;99.90
15083;DHT22;7640;53.116;6.878;2023-11-18T15:02:03;6.80;99.90
15083;DHT22;7640;53.116;6.878;2023-11-18T15:04:35;6.70;99.90
15083;DHT22;7640;53.116;6.878;2023-11-18T15:07:04;6.70;99.90
15083;DHT22;7640;53.116;6.878;2023-11-18T15:09:32;6.70;99.90
15083;DHT22;7640;53.116;6.878;2023-11-18T15:12:05;6.70;99.90
15083;DHT22;7640;53.116;6.878;2023-11-18T15:14:36;6.70;99.90
15083;DHT22;7640;53.116;6.878;2023-11-18T15:17:07;6.70;99.90
15083;DHT22;7640;53.116;6.878;2023-11-18T15:19:36;6.70;99.90
15083;DHT22;7640;53.116;6.878;2023-11-18T15:22:05;6.70;99.90
15083;DHT22;7640;53.116;6.878;2023-11-18T15:24:34;6.70;99.90
15083;DHT22;7640;53.116;6.878;2023-11-18T15:27:03;6.70;99.90
15083;DHT22;7640;53.116;6.878;2023-11-18T15:29:32;6.70;99.90
15083;DHT22;7640;53.116;6.878;2023-11-18T15:32:05;6.80;99.90
15083;DHT22;7640;53.116;6.878;2023-11-18T15:34:35;6.80;99.90
15083;DHT22;7640;53.116;6.878;2023-11-18T15:37:04;6.80;99.90
15083;DHT22;7640;53.116;6.878;2023-11-18T15:39:33;6.80;99.90
15083;DHT22;7640;53.116;6.878;2023-11-18T15:42:01;6.80;99.90
15083;DHT22;7640;53.116;6.878;2023-11-18T15:44:34;6.80;99.90
15083;DHT22;7640;53.116;6.878;2023-11-18T15:47:05;6.80;99.90
15083;DHT22;7640;53.116;6.878;2023-11-18T15:49:34;6.80;99.90
15083;DHT22;7640;53.116;6.878;2023-11-18T15:52:02;6.80;99.90
15083;DHT22;7640;53.116;6.878;2023-11-18T15:54:34;6.80;99.90
15083;DHT22;7640;53.116;6.878;2023-11-18T15:57:04;6.90;99.90
15083;DHT22;7640;53.116;6.878;2023-11-18T15:59:34;6.80;99.90
15083;DHT22;7640;53.116;6.878;2023-11-18T16:02:03;6.90;99.90
15083;DHT22;7640;53.116;6.878;2023-11-18T16:04:33;6.90;99.90
15083;DHT22;7640;53.116;6.878;2023-11-18T16:07:02;6.90;99.90
15083;DHT22;7640;53.116;6.878;2023-11-18T16:09:31;6.90;99.90
15083;DHT22;7640;53.116;6.878;2023-11-18T16:11:59;7.00;99.90
15083;DHT22;7640;53.116;6.878;2023-11-18T16:14:30;7.00;99.90
15083;DHT22;7640;53.116;6.878;2023-11-18T16:16:59;7.00;99.90
15083;DHT22;7640;53.116;6.878;2023-11-18T16:19:28;7.00;99.90
15083;DHT22;7640;53.116;6.878;2023-11-18T16:21:57;7.00;99.90
15083;DHT22;7640;53.116;6.878;2023-11-18T16:24:27;7.00;99.90
15083;DHT22;7640;53.116;6.878;2023-11-18T16:26:55;7.00;99.90
15083;DHT22;7640;53.116;6.878;2023-11-18T16:29:24;7.00;99.90